createdAt,value
2018-09-10T00:00:46.280Z,3.13
2018-09-10T00:03:25.737Z,2.90
2018-09-10T00:06:05.142Z,2.10
2018-09-10T00:08:50.907Z,2.70
2018-09-10T00:11:25.774Z,2.40
2018-09-10T00:14:11.063Z,3.20
2018-09-10T00:16:52.672Z,4.97
2018-09-10T00:19:30.185Z,2.33
2018-09-10T00:22:14.259Z,2.60
2018-09-10T00:25:13.989Z,3.10
2018-09-10T00:27:49.177Z,2.10
2018-09-10T00:30:26.419Z,1.93
2018-09-10T00:32:58.759Z,2.80
2018-09-10T00:35:52.887Z,2.50
2018-09-10T00:38:26.670Z,2.43
2018-09-10T00:41:02.108Z,4.80
2018-09-10T00:43:45.183Z,2.27
2018-09-10T00:46:23.658Z,1.57
2018-09-10T00:49:07.615Z,4.00
2018-09-10T00:51:42.622Z,2.97
2018-09-10T00:54:32.558Z,2.70
2018-09-10T00:57:11.288Z,2.10
2018-09-10T00:59:48.440Z,2.40
2018-09-10T01:02:31.853Z,2.53
2018-09-10T01:05:12.435Z,2.00
2018-09-10T01:07:54.009Z,2.17
2018-09-10T01:10:33.749Z,4.53
2018-09-10T01:13:26.708Z,3.20
2018-09-10T01:16:19.720Z,3.07
2018-09-10T01:19:19.302Z,5.70
2018-09-10T01:21:57.181Z,5.20
2018-09-10T01:24:30.512Z,6.80
2018-09-10T01:27:05.971Z,7.17
2018-09-10T01:29:44.519Z,4.90
2018-09-10T01:32:22.842Z,4.03
2018-09-10T01:35:10.618Z,7.27
2018-09-10T01:37:45.162Z,5.07
2018-09-10T01:40:18.642Z,3.63
2018-09-10T01:42:57.708Z,6.30
2018-09-10T01:45:35.162Z,4.10
2018-09-10T01:48:11.577Z,5.62
2018-09-10T01:50:47.647Z,4.53
2018-09-10T01:53:23.631Z,3.60
2018-09-10T01:56:05.338Z,4.07
2018-09-10T01:58:55.168Z,3.97
2018-09-10T02:01:28.205Z,4.67
2018-09-10T02:04:06.092Z,6.10
2018-09-10T02:06:43.975Z,3.70
2018-09-10T02:09:26.431Z,6.00
2018-09-10T02:12:03.365Z,5.53
2018-09-10T02:17:33.324Z,3.93
2018-09-10T02:20:12.759Z,5.07
2018-09-10T02:22:47.265Z,8.60
2018-09-10T02:25:32.247Z,4.93
2018-09-10T02:28:16.427Z,9.37
2018-09-10T02:30:56.421Z,6.33
2018-09-10T02:33:38.376Z,8.87
2018-09-10T02:36:15.421Z,10.40
2018-09-10T02:38:52.600Z,6.17
2018-09-10T02:41:41.326Z,13.60
2018-09-10T02:44:16.638Z,13.73
2018-09-10T02:46:52.755Z,7.40
2018-09-10T02:49:31.304Z,12.57
2018-09-10T02:54:47.958Z,8.33
2018-09-10T02:57:34.999Z,18.90
2018-09-10T03:00:20.720Z,15.20
2018-09-10T03:03:02.480Z,10.67
2018-09-10T03:05:47.181Z,8.87
2018-09-10T03:08:24.287Z,6.87
2018-09-10T03:10:57.658Z,7.80
2018-09-10T03:13:39.035Z,7.50
2018-09-10T03:16:33.648Z,6.70
2018-09-10T03:19:14.048Z,5.47
2018-09-10T03:21:54.345Z,6.73
2018-09-10T03:24:37.465Z,5.90
2018-09-10T03:27:16.104Z,8.50
2018-09-10T03:29:56.908Z,6.40
2018-09-10T03:32:29.834Z,5.57
2018-09-10T03:35:01.201Z,7.20
2018-09-10T03:37:43.091Z,7.77
2018-09-10T03:40:17.826Z,6.83
2018-09-10T03:42:57.152Z,8.17
2018-09-10T03:45:27.776Z,7.10
2018-09-10T03:48:04.530Z,6.73
2018-09-10T03:50:45.394Z,7.23
2018-09-10T03:53:32.895Z,5.90
2018-09-10T03:56:10.356Z,5.53
2018-09-10T03:58:48.727Z,5.10
2018-09-10T04:01:50.244Z,4.92
2018-09-10T04:04:31.518Z,6.80
2018-09-10T04:07:07.185Z,5.23
2018-09-10T04:09:50.262Z,7.77
2018-09-10T04:12:25.523Z,8.23
2018-09-10T04:15:10.415Z,6.13
2018-09-10T04:17:46.699Z,11.60
2018-09-10T04:20:27.227Z,9.63
2018-09-10T04:23:04.847Z,5.67
2018-09-10T04:25:46.320Z,5.47
2018-09-10T04:28:37.915Z,8.07
2018-09-10T04:31:14.149Z,9.17
2018-09-10T04:33:52.145Z,6.83
2018-09-10T04:36:32.616Z,10.40
2018-09-10T04:39:12.462Z,9.67
2018-09-10T04:41:52.163Z,11.35
2018-09-10T04:47:21.927Z,12.43
2018-09-10T04:49:56.602Z,7.37
2018-09-10T04:52:31.115Z,7.60
2018-09-10T04:55:09.289Z,12.03
2018-09-10T04:57:49.554Z,20.20
2018-09-10T05:00:34.629Z,8.50
2018-09-10T05:03:22.647Z,8.80
2018-09-10T05:06:08.631Z,12.97
2018-09-10T05:08:49.974Z,10.90
2018-09-10T05:12:04.886Z,8.80
2018-09-10T05:14:40.617Z,12.03
2018-09-10T05:17:21.629Z,12.10
2018-09-10T05:31:56.725Z,9.93
2018-09-10T05:34:54.386Z,17.92
2018-09-10T05:42:59.817Z,17.37
2018-09-10T05:46:11.018Z,14.73
2018-09-10T05:49:24.510Z,15.97
2018-09-10T05:52:00.668Z,25.03
2018-09-10T05:54:48.264Z,24.83
2018-09-10T05:57:36.618Z,23.30
2018-09-10T06:00:29.047Z,27.87
2018-09-10T06:03:19.575Z,21.90
2018-09-10T06:05:59.716Z,18.70
2018-09-10T06:17:51.014Z,18.17
2018-09-10T06:20:42.629Z,21.73
2018-09-10T06:23:36.611Z,24.47
2018-09-10T06:26:25.276Z,18.40
2018-09-10T06:34:53.581Z,15.10
2018-09-10T06:37:39.541Z,18.40
2018-09-10T06:40:22.181Z,18.93
2018-09-10T06:43:04.763Z,19.03
2018-09-10T06:46:06.289Z,19.93
2018-09-10T06:48:52.479Z,18.70
2018-09-10T06:51:52.874Z,28.57
2018-09-10T06:54:28.998Z,18.33
2018-09-10T06:57:15.721Z,17.23
2018-09-10T06:59:55.621Z,21.17
2018-09-10T07:05:48.249Z,24.33
2018-09-10T07:09:00.169Z,22.50
2018-09-10T07:22:46.774Z,26.20
2018-09-10T07:25:24.049Z,21.70
2018-09-10T07:28:07.009Z,25.43
2018-09-10T07:37:24.988Z,32.00
2018-09-10T07:40:12.844Z,30.37
2018-09-10T07:52:16.318Z,20.97
2018-09-10T07:54:54.547Z,23.42
2018-09-10T07:57:42.201Z,24.93
2018-09-10T08:03:26.506Z,26.70
2018-09-10T08:06:08.252Z,12.13
2018-09-10T08:08:50.908Z,25.30
2018-09-10T08:11:30.965Z,23.10
2018-09-10T08:19:18.063Z,16.93
2018-09-10T08:21:59.724Z,22.43
2018-09-10T08:24:45.963Z,19.27
2018-09-10T08:27:33.767Z,19.40
2018-09-10T08:30:13.716Z,21.43
2018-09-10T08:32:57.078Z,30.08
2018-09-10T08:35:50.301Z,25.90
2018-09-10T08:38:46.717Z,28.23
2018-09-10T08:41:25.722Z,26.90
2018-09-10T09:00:05.748Z,18.83
2018-09-10T09:02:43.551Z,16.07
2018-09-10T09:08:31.226Z,20.23
2018-09-10T09:17:20.323Z,10.90
2018-09-10T09:20:02.941Z,17.00
2018-09-10T09:25:53.571Z,21.07
2018-09-10T09:29:22.437Z,16.63
2018-09-10T09:32:05.517Z,16.40
2018-09-10T09:41:23.593Z,18.67
2018-09-10T09:44:05.833Z,16.13
2018-09-10T10:04:12.367Z,11.03
2018-09-10T10:07:03.984Z,6.80
2018-09-10T10:25:29.462Z,8.73
2018-09-10T10:28:12.776Z,10.13
2018-09-10T10:43:50.950Z,15.17
2018-09-10T10:47:01.440Z,16.53
2018-09-10T10:55:50.741Z,9.17
2018-09-10T10:58:46.984Z,7.43
2018-09-10T11:02:00.920Z,7.27
2018-09-10T11:04:57.437Z,4.57
2018-09-10T11:16:34.896Z,7.77
2018-09-10T11:25:14.386Z,6.60
2018-09-10T11:28:03.860Z,10.20
2018-09-10T11:30:55.780Z,13.90
2018-09-10T11:33:43.763Z,6.60
2018-09-10T12:16:18.240Z,7.00
2018-09-10T12:19:22.571Z,5.77
2018-09-10T14:18:54.712Z,6.22
2018-09-10T14:22:10.405Z,4.33
2018-09-10T14:25:09.132Z,5.70
2018-09-10T14:27:57.985Z,3.43
2018-09-10T14:30:56.582Z,7.28
2018-09-10T14:33:48.159Z,3.50
2018-09-10T14:36:42.489Z,4.03
2018-09-10T14:39:27.687Z,3.27
2018-09-10T14:45:31.097Z,8.10
2018-09-10T14:48:22.554Z,5.20
2018-09-10T14:51:17.010Z,6.57
2018-09-10T15:13:02.319Z,6.67
2018-09-10T15:19:01.455Z,5.60
2018-09-10T15:31:16.310Z,45.20
2018-09-10T15:34:13.013Z,75.80
2018-09-10T15:37:13.070Z,35.93
2018-09-10T15:40:12.708Z,24.60
2018-09-10T15:43:17.100Z,9.03
2018-09-10T16:05:00.784Z,9.00
2018-09-10T16:17:30.767Z,11.70
2018-09-10T16:26:43.600Z,7.47
2018-09-10T16:29:33.581Z,5.80
2018-09-10T17:28:06.408Z,10.58
2018-09-10T17:31:07.649Z,5.37
2018-09-10T17:36:54.456Z,8.47
2018-09-10T17:41:44.617Z,10.93
2018-09-10T17:44:23.411Z,13.30
2018-09-10T17:47:07.924Z,14.90
2018-09-10T18:01:15.710Z,9.17
2018-09-10T18:10:31.650Z,11.13
2018-09-10T18:31:34.043Z,8.58
2018-09-10T18:51:56.140Z,6.53
2018-09-10T19:26:33.579Z,6.87
2018-09-10T19:29:42.511Z,9.43
2018-09-10T19:42:44.329Z,11.13
2018-09-10T19:45:33.081Z,13.90
2018-09-10T19:48:22.357Z,12.40
2018-09-10T19:56:16.436Z,7.93
2018-09-10T19:59:13.539Z,8.30
2018-09-10T20:02:03.378Z,13.43
2018-09-10T20:12:53.291Z,8.00
2018-09-10T20:15:46.630Z,12.30
2018-09-10T20:18:47.680Z,24.27
2018-09-10T20:21:40.637Z,9.37
2018-09-10T20:30:06.346Z,10.00
2018-09-10T20:49:08.199Z,8.23
2018-09-10T20:53:10.896Z,22.63
2018-09-10T20:56:00.973Z,13.83
2018-09-10T20:58:51.100Z,24.47
2018-09-10T21:06:07.188Z,20.60
2018-09-10T21:09:13.089Z,10.87
2018-09-10T21:11:57.294Z,11.10
2018-09-10T21:19:03.630Z,14.07
2018-09-10T21:22:03.079Z,8.83
2018-09-10T21:27:58.978Z,10.13
2018-09-10T21:31:04.143Z,8.10
2018-09-10T21:34:20.830Z,11.38
2018-09-10T21:37:13.958Z,14.60
2018-09-10T21:39:59.551Z,12.50
2018-09-10T21:42:37.214Z,11.60
2018-09-10T21:45:29.314Z,16.00
2018-09-10T21:48:22.089Z,12.63
2018-09-10T21:51:15.436Z,21.57
2018-09-10T21:54:58.405Z,7.73
2018-09-10T21:57:51.496Z,8.70
2018-09-10T22:00:45.822Z,10.03
2018-09-10T22:03:35.360Z,9.03
2018-09-10T22:17:19.211Z,9.53
2018-09-10T22:20:03.220Z,13.17
2018-09-10T22:22:48.894Z,12.97
2018-09-10T22:25:38.134Z,19.90
2018-09-10T22:28:21.466Z,13.43
2018-09-10T22:34:01.998Z,9.63
2018-09-10T22:36:47.322Z,20.17
2018-09-10T22:39:35.871Z,13.47
2018-09-10T23:10:20.409Z,16.43
2018-09-10T23:13:07.640Z,15.93
2018-09-10T23:15:52.654Z,12.93
2018-09-10T23:18:45.076Z,10.82
2018-09-10T23:21:37.907Z,12.73
2018-09-10T23:24:15.370Z,16.20
2018-09-10T23:26:53.347Z,13.83
2018-09-10T23:29:43.067Z,13.13
2018-09-10T23:32:31.128Z,10.23
2018-09-10T23:37:41.456Z,12.73
2018-09-10T23:40:36.161Z,7.23
2018-09-10T23:43:23.706Z,14.60
2018-09-10T23:46:07.086Z,9.23
2018-09-10T23:48:46.683Z,7.57
2018-09-10T23:51:36.214Z,9.23
2018-09-10T23:54:11.345Z,10.33
2018-09-10T23:56:46.373Z,15.60
2018-09-10T23:59:21.141Z,11.03
